sensor_id;sensor_type;location;lat;lon;timestamp;pressure;altitude;pressure_sealevel;temperature;humidity
73151;BME280;61354;50.758;6.106;2023-04-19T00:01:37;100051.94;;;9.68;87.80
73151;BME280;61354;50.758;6.106;2023-04-19T00:04:03;100061.22;;;9.73;88.41
73151;BME280;61354;50.758;6.106;2023-04-19T00:06:29;100047.84;;;9.75;86.95
73151;BME280;61354;50.758;6.106;2023-04-19T00:08:56;100049.66;;;9.70;87.10
73151;BME280;61354;50.758;6.106;2023-04-19T00:11:22;100047.84;;;9.75;86.79
73151;BME280;61354;50.758;6.106;2023-04-19T00:13:48;100052.09;;;9.72;86.85
73151;BME280;61354;50.758;6.106;2023-04-19T00:16:15;100051.09;;;9.77;86.71
73151;BME280;61354;50.758;6.106;2023-04-19T00:18:41;100045.22;;;9.78;86.51
73151;BME280;61354;50.758;6.106;2023-04-19T00:21:07;100047.66;;;9.80;86.77
73151;BME280;61354;50.758;6.106;2023-04-19T00:23:33;100042.13;;;9.80;85.71
73151;BME280;61354;50.758;6.106;2023-04-19T00:26:01;100039.66;;;9.78;85.95
73151;BME280;61354;50.758;6.106;2023-04-19T00:28:27;100045.38;;;9.82;86.45
73151;BME280;61354;50.758;6.106;2023-04-19T00:30:53;100046.34;;;9.86;86.52
73151;BME280;61354;50.758;6.106;2023-04-19T00:33:18;100040.59;;;9.91;85.84
73151;BME280;61354;50.758;6.106;2023-04-19T00:35:44;100046.03;;;9.87;85.25
73151;BME280;61354;50.758;6.106;2023-04-19T00:38:10;100040.31;;;9.84;85.66
73151;BME280;61354;50.758;6.106;2023-04-19T00:40:36;100037.53;;;9.84;85.44
73151;BME280;61354;50.758;6.106;2023-04-19T00:43:02;100037.53;;;9.84;85.19
73151;BME280;61354;50.758;6.106;2023-04-19T00:45:27;100037.22;;;9.77;85.54
73151;BME280;61354;50.758;6.106;2023-04-19T00:47:54;100045.38;;;9.82;85.94
73151;BME280;61354;50.758;6.106;2023-04-19T00:50:20;100044.41;;;9.78;86.44
73151;BME280;61354;50.758;6.106;2023-04-19T00:52:46;100039.66;;;9.78;85.56
73151;BME280;61354;50.758;6.106;2023-04-19T00:55:12;100046.19;;;9.74;86.23
73151;BME280;61354;50.758;6.106;2023-04-19T00:57:39;100042.78;;;9.77;85.83
73151;BME280;61354;50.758;6.106;2023-04-19T01:00:05;100042.97;;;9.71;86.06
73151;BME280;61354;50.758;6.106;2023-04-19T01:02:32;100040.50;;;9.70;86.10
73151;BME280;61354;50.758;6.106;2023-04-19T01:04:58;100037.72;;;9.70;86.48
73151;BME280;61354;50.758;6.106;2023-04-19T01:07:23;100037.44;;;9.63;86.84
73151;BME280;61354;50.758;6.106;2023-04-19T01:09:49;100037.59;;;9.66;86.66
73151;BME280;61354;50.758;6.106;2023-04-19T01:12:15;100033.66;;;9.67;86.73
73151;BME280;61354;50.758;6.106;2023-04-19T01:14:40;100043.94;;;9.67;86.60
73151;BME280;61354;50.758;6.106;2023-04-19T01:17:07;100034.97;;;9.61;87.02
73151;BME280;61354;50.758;6.106;2023-04-19T01:19:33;100031.88;;;9.63;86.46
73151;BME280;61354;50.758;6.106;2023-04-19T01:21:59;100036.63;;;9.62;87.42
73151;BME280;61354;50.758;6.106;2023-04-19T01:24:27;100033.03;;;9.70;86.53
73151;BME280;61354;50.758;6.106;2023-04-19T01:26:52;100031.72;;;9.68;85.63
73151;BME280;61354;50.758;6.106;2023-04-19T01:29:18;100033.16;;;9.65;86.10
73151;BME280;61354;50.758;6.106;2023-04-19T01:31:47;100033.50;;;9.64;86.25
73151;BME280;61354;50.758;6.106;2023-04-19T01:34:16;100028.78;;;9.64;86.63
73151;BME280;61354;50.758;6.106;2023-04-19T01:36:41;100022.56;;;9.67;86.23
73151;BME280;61354;50.758;6.106;2023-04-19T01:39:07;100023.88;;;9.61;87.17
73151;BME280;61354;50.758;6.106;2023-04-19T01:41:32;100023.72;;;9.66;86.61
73151;BME280;61354;50.758;6.106;2023-04-19T01:43:58;100022.56;;;9.67;86.56
73151;BME280;61354;50.758;6.106;2023-04-19T01:46:25;100028.94;;;9.68;86.56
73151;BME280;61354;50.758;6.106;2023-04-19T01:48:50;100024.84;;;9.65;86.82
73151;BME280;61354;50.758;6.106;2023-04-19T01:51:16;100016.06;;;9.63;86.77
73151;BME280;61354;50.758;6.106;2023-04-19T01:53:42;100010.50;;;9.63;86.51
73151;BME280;61354;50.758;6.106;2023-04-19T01:56:07;100017.38;;;9.57;87.35
73151;BME280;61354;50.758;6.106;2023-04-19T01:58:33;100019.66;;;9.55;87.25
73151;BME280;61354;50.758;6.106;2023-04-19T02:00:58;100024.06;;;9.56;87.14
73151;BME280;61354;50.758;6.106;2023-04-19T02:03:24;100014.28;;;9.59;86.38
73151;BME280;61354;50.758;6.106;2023-04-19T02:05:49;100019.16;;;9.53;87.40
73151;BME280;61354;50.758;6.106;2023-04-19T02:08:16;100016.41;;;9.44;87.64
73151;BME280;61354;50.758;6.106;2023-04-19T02:10:41;100017.06;;;9.33;87.98
73151;BME280;61354;50.758;6.106;2023-04-19T02:13:07;100004.88;;;9.25;89.15
73151;BME280;61354;50.758;6.106;2023-04-19T02:15:32;100005.38;;;9.18;89.41
73151;BME280;61354;50.758;6.106;2023-04-19T02:17:58;100010.41;;;9.16;88.92
73151;BME280;61354;50.758;6.106;2023-04-19T02:20:24;100009.47;;;9.12;89.32
73151;BME280;61354;50.758;6.106;2023-04-19T02:22:50;100005.56;;;9.05;90.09
73151;BME280;61354;50.758;6.106;2023-04-19T02:25:15;100007.50;;;9.04;90.01
73151;BME280;61354;50.758;6.106;2023-04-19T02:27:41;100004.41;;;8.88;90.82
73151;BME280;61354;50.758;6.106;2023-04-19T02:30:07;100010.09;;;8.83;91.44
73151;BME280;61354;50.758;6.106;2023-04-19T02:32:33;100009.13;;;8.79;92.07
73151;BME280;61354;50.758;6.106;2023-04-19T02:34:58;100006.31;;;8.70;92.37
73151;BME280;61354;50.758;6.106;2023-04-19T02:37:24;100006.31;;;8.62;93.30
73151;BME280;61354;50.758;6.106;2023-04-19T02:39:49;100006.31;;;8.70;92.93
73151;BME280;61354;50.758;6.106;2023-04-19T02:42:15;100009.75;;;8.59;93.70
73151;BME280;61354;50.758;6.106;2023-04-19T02:44:40;100011.66;;;8.41;93.89
73151;BME280;61354;50.758;6.106;2023-04-19T02:47:06;100017.72;;;8.60;93.65
73151;BME280;61354;50.758;6.106;2023-04-19T02:49:32;100021.09;;;8.40;94.59
73151;BME280;61354;50.758;6.106;2023-04-19T02:52:00;100020.78;;;8.50;94.63
73151;BME280;61354;50.758;6.106;2023-04-19T02:54:26;100015.09;;;8.38;95.12
73151;BME280;61354;50.758;6.106;2023-04-19T02:56:51;100019.44;;;8.30;95.67
73151;BME280;61354;50.758;6.106;2023-04-19T02:59:17;100020.63;;;8.38;95.22
73151;BME280;61354;50.758;6.106;2023-04-19T03:01:42;100019.88;;;8.23;96.26
73151;BME280;61354;50.758;6.106;2023-04-19T03:04:08;100026.06;;;8.20;96.19
73151;BME280;61354;50.758;6.106;2023-04-19T03:06:33;100022.81;;;8.18;96.94
73151;BME280;61354;50.758;6.106;2023-04-19T03:08:59;100019.09;;;8.32;95.82
73151;BME280;61354;50.758;6.106;2023-04-19T03:11:25;100018.63;;;8.30;96.49
73151;BME280;61354;50.758;6.106;2023-04-19T03:13:50;100022.31;;;8.25;96.96
73151;BME280;61354;50.758;6.106;2023-04-19T03:16:16;100018.91;;;8.28;96.98
73151;BME280;61354;50.758;6.106;2023-04-19T03:18:42;100011.94;;;8.31;97.34
73151;BME280;61354;50.758;6.106;2023-04-19T03:21:07;100018.97;;;8.37;96.72
73151;BME280;61354;50.758;6.106;2023-04-19T03:23:33;100021.94;;;8.49;96.54
73151;BME280;61354;50.758;6.106;2023-04-19T03:25:59;100016.41;;;8.49;96.76
73151;BME280;61354;50.758;6.106;2023-04-19T03:28:26;100012.81;;;8.40;96.58
73151;BME280;61354;50.758;6.106;2023-04-19T03:30:52;100009.47;;;8.29;98.64
73151;BME280;61354;50.758;6.106;2023-04-19T03:33:17;100011.66;;;8.41;97.00
73151;BME280;61354;50.758;6.106;2023-04-19T03:35:43;100009.56;;;8.38;97.30
73151;BME280;61354;50.758;6.106;2023-04-19T03:38:09;100013.81;;;8.61;96.59
73151;BME280;61354;50.758;6.106;2023-04-19T03:40:38;100006.81;;;8.55;97.04
73151;BME280;61354;50.758;6.106;2023-04-19T03:43:04;100010.75;;;8.63;96.38
73151;BME280;61354;50.758;6.106;2023-04-19T03:45:29;100002.25;;;8.59;97.11
73151;BME280;61354;50.758;6.106;2023-04-19T03:47:55;99997.19;;;8.61;97.11
73151;BME280;61354;50.758;6.106;2023-04-19T03:50:20;99998.34;;;8.52;97.06
73151;BME280;61354;50.758;6.106;2023-04-19T03:52:46;99994.75;;;8.51;97.21
73151;BME280;61354;50.758;6.106;2023-04-19T03:55:11;99997.53;;;8.51;97.23
73151;BME280;61354;50.758;6.106;2023-04-19T03:57:38;99997.19;;;8.61;97.38
73151;BME280;61354;50.758;6.106;2023-04-19T04:00:04;99994.59;;;8.65;96.60
73151;BME280;61354;50.758;6.106;2023-04-19T04:02:36;99996.09;;;8.71;96.62
73151;BME280;61354;50.758;6.106;2023-04-19T04:05:03;99999.16;;;8.69;96.60
73151;BME280;61354;50.758;6.106;2023-04-19T04:07:28;100000.78;;;8.62;97.23
73151;BME280;61354;50.758;6.106;2023-04-19T04:09:54;100000.66;;;8.67;97.40
73151;BME280;61354;50.758;6.106;2023-04-19T04:12:19;99994.94;;;8.63;97.26
73151;BME280;61354;50.758;6.106;2023-04-19T04:14:45;100001.94;;;8.61;97.62
73151;BME280;61354;50.758;6.106;2023-04-19T04:17:11;99998.00;;;8.62;97.88
73151;BME280;61354;50.758;6.106;2023-04-19T04:19:36;99996.72;;;8.68;97.82
73151;BME280;61354;50.758;6.106;2023-04-19T04:22:02;99999.34;;;8.64;97.61
73151;BME280;61354;50.758;6.106;2023-04-19T04:24:28;100000.94;;;8.57;97.99
73151;BME280;61354;50.758;6.106;2023-04-19T04:26:55;100000.13;;;8.56;98.64
73151;BME280;61354;50.758;6.106;2023-04-19T04:29:22;100002.09;;;8.64;98.40
73151;BME280;61354;50.758;6.106;2023-04-19T04:31:47;100006.00;;;8.63;98.50
73151;BME280;61354;50.758;6.106;2023-04-19T04:34:13;100011.06;;;8.70;97.81
73151;BME280;61354;50.758;6.106;2023-04-19T04:36:38;100009.44;;;8.69;98.11
73151;BME280;61354;50.758;6.106;2023-04-19T04:39:06;100019.03;;;8.63;99.10
73151;BME280;61354;50.758;6.106;2023-04-19T04:41:34;100014.81;;;8.65;98.29
73151;BME280;61354;50.758;6.106;2023-04-19T04:44:00;100013.81;;;8.61;99.00
73151;BME280;61354;50.758;6.106;2023-04-19T04:46:29;100017.75;;;8.69;98.34
73151;BME280;61354;50.758;6.106;2023-04-19T04:48:54;100020.84;;;8.59;99.32
73151;BME280;61354;50.758;6.106;2023-04-19T04:51:20;100017.72;;;8.60;99.35
73151;BME280;61354;50.758;6.106;2023-04-19T04:53:45;100032.22;;;8.66;99.17
73151;BME280;61354;50.758;6.106;2023-04-19T04:56:11;100023.78;;;8.71;98.89
73151;BME280;61354;50.758;6.106;2023-04-19T04:58:39;100021.81;;;8.71;99.47
73151;BME280;61354;50.758;6.106;2023-04-19T05:01:05;100030.13;;;8.71;99.54
73151;BME280;61354;50.758;6.106;2023-04-19T05:03:30;100021.66;;;8.68;99.91
73151;BME280;61354;50.758;6.106;2023-04-19T05:05:56;100024.59;;;8.71;99.54
73151;BME280;61354;50.758;6.106;2023-04-19T05:08:22;100027.50;;;8.66;100.00
73151;BME280;61354;50.758;6.106;2023-04-19T05:10:47;100027.66;;;8.70;100.00
73151;BME280;61354;50.758;6.106;2023-04-19T05:13:13;100021.50;;;8.73;100.00
73151;BME280;61354;50.758;6.106;2023-04-19T05:15:38;100030.59;;;8.74;100.00
73151;BME280;61354;50.758;6.106;2023-04-19T05:18:04;100024.91;;;8.79;100.00
73151;BME280;61354;50.758;6.106;2023-04-19T05:20:30;100027.84;;;8.74;100.00
73151;BME280;61354;50.758;6.106;2023-04-19T05:22:59;100031.13;;;8.76;100.00
73151;BME280;61354;50.758;6.106;2023-04-19T05:25:26;100024.25;;;8.82;100.00
73151;BME280;61354;50.758;6.106;2023-04-19T05:27:52;100034.06;;;8.88;100.00
73151;BME280;61354;50.758;6.106;2023-04-19T05:30:17;100029.97;;;8.85;100.00
73151;BME280;61354;50.758;6.106;2023-04-19T05:32:43;100023.47;;;8.90;100.00
73151;BME280;61354;50.758;6.106;2023-04-19T05:35:09;100026.22;;;8.90;100.00
73151;BME280;61354;50.758;6.106;2023-04-19T05:37:35;100026.72;;;8.92;100.00
73151;BME280;61354;50.758;6.106;2023-04-19T05:40:01;100020.69;;;8.90;100.00
73151;BME280;61354;50.758;6.106;2023-04-19T05:42:30;100020.53;;;8.95;100.00
73151;BME280;61354;50.758;6.106;2023-04-19T05:44:56;100024.09;;;8.95;100.00
73151;BME280;61354;50.758;6.106;2023-04-19T05:47:22;100017.09;;;8.98;100.00
73151;BME280;61354;50.758;6.106;2023-04-19T05:49:47;100019.53;;;9.00;100.00
73151;BME280;61354;50.758;6.106;2023-04-19T05:52:13;100019.41;;;9.05;100.00
73151;BME280;61354;50.758;6.106;2023-04-19T05:54:38;100012.88;;;9.09;100.00
73151;BME280;61354;50.758;6.106;2023-04-19T05:57:04;100016.13;;;9.11;100.00
73151;BME280;61354;50.758;6.106;2023-04-19T05:59:30;100020.19;;;9.23;99.85
73151;BME280;61354;50.758;6.106;2023-04-19T06:01:55;100015.63;;;9.27;100.00
73151;BME280;61354;50.758;6.106;2023-04-19T06:04:21;100019.03;;;9.32;99.48
73151;BME280;61354;50.758;6.106;2023-04-19T06:06:46;100026.38;;;9.37;99.91
73151;BME280;61354;50.758;6.106;2023-04-19T06:09:12;100023.47;;;9.33;99.56
73151;BME280;61354;50.758;6.106;2023-04-19T06:11:42;100022.47;;;9.38;100.00
73151;BME280;61354;50.758;6.106;2023-04-19T06:14:11;100016.09;;;9.46;99.50
73151;BME280;61354;50.758;6.106;2023-04-19T06:16:40;100013.31;;;9.55;99.96
73151;BME280;61354;50.758;6.106;2023-04-19T06:19:05;100015.59;;;9.53;99.21
73151;BME280;61354;50.758;6.106;2023-04-19T06:21:34;100013.16;;;9.51;98.60
73151;BME280;61354;50.758;6.106;2023-04-19T06:24:00;100016.25;;;9.58;98.43
73151;BME280;61354;50.758;6.106;2023-04-19T06:26:25;100017.06;;;9.50;98.86
73151;BME280;61354;50.758;6.106;2023-04-19T06:28:51;100014.94;;;9.56;98.56
73151;BME280;61354;50.758;6.106;2023-04-19T06:31:17;100016.72;;;9.60;97.89
73151;BME280;61354;50.758;6.106;2023-04-19T06:33:42;100013.47;;;9.58;98.35
73151;BME280;61354;50.758;6.106;2023-04-19T06:36:08;100022.06;;;9.65;98.56
73151;BME280;61354;50.758;6.106;2023-04-19T06:38:35;100017.84;;;9.68;98.51
73151;BME280;61354;50.758;6.106;2023-04-19T06:41:03;100019.97;;;9.71;97.27
73151;BME280;61354;50.758;6.106;2023-04-19T06:43:29;100014.19;;;9.85;98.39
73151;BME280;61354;50.758;6.106;2023-04-19T06:46:01;100025.75;;;9.87;97.67
73151;BME280;61354;50.758;6.106;2023-04-19T06:48:32;100027.41;;;9.88;97.43
73151;BME280;61354;50.758;6.106;2023-04-19T06:50:58;100015.53;;;9.79;96.44
73151;BME280;61354;50.758;6.106;2023-04-19T06:53:24;100022.53;;;9.85;95.78
73151;BME280;61354;50.758;6.106;2023-04-19T06:55:59;100024.59;;;9.96;95.99
73151;BME280;61354;50.758;6.106;2023-04-19T06:58:25;100026.91;;;9.86;96.38
73151;BME280;61354;50.758;6.106;2023-04-19T07:00:51;100026.38;;;10.01;96.09
73151;BME280;61354;50.758;6.106;2023-04-19T07:03:17;100024.25;;;9.98;95.55
73151;BME280;61354;50.758;6.106;2023-04-19T07:05:43;100028.81;;;10.03;94.72
73151;BME280;61354;50.758;6.106;2023-04-19T07:08:09;100018.81;;;10.10;94.89
73151;BME280;61354;50.758;6.106;2023-04-19T07:10:34;100022.09;;;10.12;95.07
73151;BME280;61354;50.758;6.106;2023-04-19T07:13:00;100018.16;;;10.13;94.48
73151;BME280;61354;50.758;6.106;2023-04-19T07:15:25;100017.66;;;10.29;94.54
73151;BME280;61354;50.758;6.106;2023-04-19T07:17:51;100020.88;;;10.31;92.86
73151;BME280;61354;50.758;6.106;2023-04-19T07:20:16;100023.75;;;10.43;93.97
73151;BME280;61354;50.758;6.106;2023-04-19T07:22:42;100016.09;;;10.40;92.99
73151;BME280;61354;50.758;6.106;2023-04-19T07:25:08;100009.38;;;10.70;92.96
73151;BME280;61354;50.758;6.106;2023-04-19T07:27:34;100015.22;;;10.48;92.46
73151;BME280;61354;50.758;6.106;2023-04-19T07:29:59;100019.94;;;10.27;92.89
73151;BME280;61354;50.758;6.106;2023-04-19T07:32:25;100008.34;;;10.16;93.69
73151;BME280;61354;50.758;6.106;2023-04-19T07:34:50;100008.91;;;10.39;93.73
73151;BME280;61354;50.758;6.106;2023-04-19T07:37:17;100007.59;;;10.45;93.69
73151;BME280;61354;50.758;6.106;2023-04-19T07:39:42;100010.03;;;10.47;92.55
73151;BME280;61354;50.758;6.106;2023-04-19T07:42:08;100012.03;;;10.37;90.99
73151;BME280;61354;50.758;6.106;2023-04-19T07:44:34;100007.59;;;10.45;92.05
73151;BME280;61354;50.758;6.106;2023-04-19T07:46:59;100004.03;;;10.36;90.22
73151;BME280;61354;50.758;6.106;2023-04-19T07:49:25;100004.63;;;10.50;90.70
73151;BME280;61354;50.758;6.106;2023-04-19T07:51:50;99999.72;;;10.47;91.92
73151;BME280;61354;50.758;6.106;2023-04-19T07:54:16;100012.97;;;10.71;92.38
73151;BME280;61354;50.758;6.106;2023-04-19T07:56:45;100009.69;;;10.69;91.06
73151;BME280;61354;50.758;6.106;2023-04-19T07:59:10;100004.97;;;10.69;89.29
73151;BME280;61354;50.758;6.106;2023-04-19T08:01:36;100008.50;;;10.58;90.41
73151;BME280;61354;50.758;6.106;2023-04-19T08:04:01;100005.06;;;10.23;88.23
73151;BME280;61354;50.758;6.106;2023-04-19T08:06:27;100003.44;;;10.21;89.20
73151;BME280;61354;50.758;6.106;2023-04-19T08:08:57;100004.31;;;10.43;89.67
73151;BME280;61354;50.758;6.106;2023-04-19T08:11:22;100009.31;;;10.29;88.21
73151;BME280;61354;50.758;6.106;2023-04-19T08:13:49;100012.91;;;10.20;87.75
73151;BME280;61354;50.758;6.106;2023-04-19T08:16:15;100012.97;;;10.03;88.91
73151;BME280;61354;50.758;6.106;2023-04-19T08:18:40;100004.28;;;10.13;88.58
73151;BME280;61354;50.758;6.106;2023-04-19T08:21:06;100009.03;;;10.13;87.59
73151;BME280;61354;50.758;6.106;2023-04-19T08:23:32;100007.16;;;10.34;87.80
73151;BME280;61354;50.758;6.106;2023-04-19T08:25:57;100007.16;;;10.34;86.46
73151;BME280;61354;50.758;6.106;2023-04-19T08:28:23;100004.03;;;10.36;86.34
73151;BME280;61354;50.758;6.106;2023-04-19T08:30:49;100006.81;;;10.36;84.89
73151;BME280;61354;50.758;6.106;2023-04-19T08:33:14;100007.31;;;10.38;85.00
73151;BME280;61354;50.758;6.106;2023-04-19T08:35:40;100004.31;;;10.43;84.52
73151;BME280;61354;50.758;6.106;2023-04-19T08:38:07;100003.66;;;10.46;84.71
73151;BME280;61354;50.758;6.106;2023-04-19T08:40:32;100000.56;;;10.68;84.23
73151;BME280;61354;50.758;6.106;2023-04-19T08:42:58;99998.81;;;10.85;83.25
73151;BME280;61354;50.758;6.106;2023-04-19T08:45:27;100009.19;;;10.97;82.26
73151;BME280;61354;50.758;6.106;2023-04-19T08:47:57;99991.91;;;11.12;81.71
73151;BME280;61354;50.758;6.106;2023-04-19T08:50:24;99990.25;;;11.11;79.83
73151;BME280;61354;50.758;6.106;2023-04-19T08:52:49;99989.31;;;11.07;81.33
73151;BME280;61354;50.758;6.106;2023-04-19T08:55:15;99984.28;;;11.21;80.21
73151;BME280;61354;50.758;6.106;2023-04-19T08:57:41;99987.53;;;11.23;78.38
73151;BME280;61354;50.758;6.106;2023-04-19T09:00:07;99991.91;;;11.12;80.38
73151;BME280;61354;50.758;6.106;2023-04-19T09:02:49;99978.31;;;11.10;78.40
73151;BME280;61354;50.758;6.106;2023-04-19T09:05:22;99974.38;;;11.32;77.92
73151;BME280;61354;50.758;6.106;2023-04-19T09:07:48;99968.91;;;11.36;78.40
73151;BME280;61354;50.758;6.106;2023-04-19T09:10:17;99979.03;;;11.07;79.32
73151;BME280;61354;50.758;6.106;2023-04-19T09:12:59;99968.41;;;11.22;78.59
73151;BME280;61354;50.758;6.106;2023-04-19T09:15:39;99967.97;;;11.32;77.50
73151;BME280;61354;50.758;6.106;2023-04-19T09:18:09;99962.47;;;11.56;78.13
73151;BME280;61354;50.758;6.106;2023-04-19T09:20:39;99963.66;;;11.55;75.50
73151;BME280;61354;50.758;6.106;2023-04-19T09:23:07;99967.38;;;11.59;77.17
73151;BME280;61354;50.758;6.106;2023-04-19T09:25:33;99959.97;;;11.76;74.28
73151;BME280;61354;50.758;6.106;2023-04-19T09:28:12;99971.28;;;11.46;72.76
73151;BME280;61354;50.758;6.106;2023-04-19T09:30:39;99967.63;;;11.66;72.95
73151;BME280;61354;50.758;6.106;2023-04-19T09:33:05;99964.16;;;11.82;72.70
73151;BME280;61354;50.758;6.106;2023-04-19T09:38:05;99960.16;;;12.04;75.43
73151;BME280;61354;50.758;6.106;2023-04-19T09:40:31;99952.59;;;11.92;73.87
73151;BME280;61354;50.758;6.106;2023-04-19T09:42:57;99948.41;;;11.86;72.23
73151;BME280;61354;50.758;6.106;2023-04-19T09:45:22;99950.06;;;11.99;72.67
73151;BME280;61354;50.758;6.106;2023-04-19T09:48:05;99941.59;;;11.96;73.30
73151;BME280;61354;50.758;6.106;2023-04-19T09:50:33;99942.16;;;12.26;72.90
73151;BME280;61354;50.758;6.106;2023-04-19T09:52:59;99934.28;;;12.15;72.21
73151;BME280;61354;50.758;6.106;2023-04-19T09:55:26;99944.25;;;11.92;70.10
73151;BME280;61354;50.758;6.106;2023-04-19T09:57:52;99940.78;;;11.95;72.00
73151;BME280;61354;50.758;6.106;2023-04-19T10:00:18;99946.47;;;11.99;67.94
73151;BME280;61354;50.758;6.106;2023-04-19T10:02:46;99941.81;;;12.15;70.49
73151;BME280;61354;50.758;6.106;2023-04-19T10:05:20;99941.22;;;12.09;68.83
73151;BME280;61354;50.758;6.106;2023-04-19T10:07:48;99930.91;;;11.85;66.48
73151;BME280;61354;50.758;6.106;2023-04-19T10:10:16;99929.03;;;12.14;69.41
73151;BME280;61354;50.758;6.106;2023-04-19T10:12:42;99927.44;;;12.13;67.33
73151;BME280;61354;50.758;6.106;2023-04-19T10:15:12;99929.28;;;12.09;66.22
73151;BME280;61354;50.758;6.106;2023-04-19T10:17:39;99925.22;;;11.94;64.98
73151;BME280;61354;50.758;6.106;2023-04-19T10:20:08;99930.66;;;12.15;65.94
73151;BME280;61354;50.758;6.106;2023-04-19T10:22:35;99924.88;;;12.32;67.57
73151;BME280;61354;50.758;6.106;2023-04-19T10:25:09;99915.09;;;12.38;64.20
73151;BME280;61354;50.758;6.106;2023-04-19T10:27:35;99911.75;;;12.33;61.45
73151;BME280;61354;50.758;6.106;2023-04-19T10:30:03;99911.38;;;12.47;61.74
73151;BME280;61354;50.758;6.106;2023-04-19T10:32:39;99914.47;;;12.57;62.04
73151;BME280;61354;50.758;6.106;2023-04-19T10:35:20;99910.44;;;12.42;58.05
73151;BME280;61354;50.758;6.106;2023-04-19T10:38:12;99896.59;;;12.58;58.67
73151;BME280;61354;50.758;6.106;2023-04-19T10:43:34;99903.78;;;12.59;54.52
73151;BME280;61354;50.758;6.106;2023-04-19T10:46:12;99902.19;;;12.46;55.68
73151;BME280;61354;50.758;6.106;2023-04-19T10:54:31;99898.28;;;12.75;56.40
73151;BME280;61354;50.758;6.106;2023-04-19T10:56:59;99899.13;;;12.63;54.52
73151;BME280;61354;50.758;6.106;2023-04-19T10:59:31;99899.78;;;12.73;53.34
73151;BME280;61354;50.758;6.106;2023-04-19T11:02:26;99898.38;;;12.38;51.04
73151;BME280;61354;50.758;6.106;2023-04-19T11:07:18;99896.09;;;12.68;52.07
73151;BME280;61354;50.758;6.106;2023-04-19T11:09:46;99892.16;;;12.69;52.96
73151;BME280;61354;50.758;6.106;2023-04-19T11:12:17;99881.00;;;12.69;51.05
73151;BME280;61354;50.758;6.106;2023-04-19T11:17:19;99873.56;;;12.74;51.43
73151;BME280;61354;50.758;6.106;2023-04-19T11:22:33;99866.72;;;12.71;50.71
73151;BME280;61354;50.758;6.106;2023-04-19T11:25:12;99857.59;;;12.58;48.43
73151;BME280;61354;50.758;6.106;2023-04-19T11:27:42;99854.19;;;12.93;49.64
73151;BME280;61354;50.758;6.106;2023-04-19T11:30:11;99851.97;;;12.99;49.48
73151;BME280;61354;50.758;6.106;2023-04-19T11:32:44;99853.19;;;13.29;51.44
73151;BME280;61354;50.758;6.106;2023-04-19T11:35:11;99864.25;;;13.26;51.42
73151;BME280;61354;50.758;6.106;2023-04-19T11:37:37;99832.72;;;13.09;48.29
73151;BME280;61354;50.758;6.106;2023-04-19T11:40:05;99849.19;;;12.71;48.52
73151;BME280;61354;50.758;6.106;2023-04-19T11:42:31;99840.97;;;12.90;48.92
73151;BME280;61354;50.758;6.106;2023-04-19T11:44:57;99837.78;;;13.19;48.68
73151;BME280;61354;50.758;6.106;2023-04-19T11:47:25;99840.19;;;13.21;47.79
73151;BME280;61354;50.758;6.106;2023-04-19T11:49:51;99832.63;;;13.06;48.97
73151;BME280;61354;50.758;6.106;2023-04-19T11:52:22;99825.72;;;13.15;49.51
73151;BME280;61354;50.758;6.106;2023-04-19T11:54:48;99834.03;;;13.28;49.23
73151;BME280;61354;50.758;6.106;2023-04-19T11:57:13;99832.41;;;13.27;50.17
73151;BME280;61354;50.758;6.106;2023-04-19T12:00:25;99818.91;;;13.29;47.58
73151;BME280;61354;50.758;6.106;2023-04-19T12:02:47;99822.31;;;13.06;47.63
73151;BME280;61354;50.758;6.106;2023-04-19T12:05:14;99821.63;;;13.41;48.00
73151;BME280;61354;50.758;6.106;2023-04-19T12:08:03;99819.28;;;13.43;48.88
73151;BME280;61354;50.758;6.106;2023-04-19T12:10:30;99820.31;;;13.07;45.83
73151;BME280;61354;50.758;6.106;2023-04-19T12:12:55;99807.00;;;13.63;49.74
73151;BME280;61354;50.758;6.106;2023-04-19T12:15:21;99808.28;;;13.50;48.89
73151;BME280;61354;50.758;6.106;2023-04-19T12:18:00;99811.28;;;13.41;48.60
73151;BME280;61354;50.758;6.106;2023-04-19T12:20:36;99806.13;;;13.59;48.82
73151;BME280;61354;50.758;6.106;2023-04-19T12:23:03;99809.81;;;13.63;46.62
73151;BME280;61354;50.758;6.106;2023-04-19T12:25:32;99817.63;;;13.74;45.16
73151;BME280;61354;50.758;6.106;2023-04-19T12:27:59;99816.66;;;13.50;48.64
73151;BME280;61354;50.758;6.106;2023-04-19T12:30:25;99805.31;;;13.43;46.65
73151;BME280;61354;50.758;6.106;2023-04-19T12:32:54;99812.25;;;13.49;45.00
73151;BME280;61354;50.758;6.106;2023-04-19T12:35:24;99810.72;;;13.52;44.67
73151;BME280;61354;50.758;6.106;2023-04-19T12:37:54;99812.97;;;13.46;44.16
73151;BME280;61354;50.758;6.106;2023-04-19T12:40:22;99814.69;;;13.51;45.14
73151;BME280;61354;50.758;6.106;2023-04-19T12:42:47;99805.78;;;13.45;43.58
73151;BME280;61354;50.758;6.106;2023-04-19T12:45:13;99808.38;;;13.38;41.81
73151;BME280;61354;50.758;6.106;2023-04-19T12:47:40;99807.16;;;13.35;40.89
73151;BME280;61354;50.758;6.106;2023-04-19T12:50:07;99805.94;;;13.21;41.37
73151;BME280;61354;50.758;6.106;2023-04-19T12:52:32;99802.53;;;13.43;41.78
73151;BME280;61354;50.758;6.106;2023-04-19T12:54:58;99803.63;;;13.38;42.25
73151;BME280;61354;50.758;6.106;2023-04-19T12:57:23;99794.44;;;13.54;41.44
73151;BME280;61354;50.758;6.106;2023-04-19T12:59:49;99796.59;;;13.29;40.31
73151;BME280;61354;50.758;6.106;2023-04-19T13:02:15;99785.06;;;13.46;40.25
73151;BME280;61354;50.758;6.106;2023-04-19T13:04:40;99794.81;;;13.36;40.98
73151;BME280;61354;50.758;6.106;2023-04-19T13:07:06;99786.63;;;13.28;39.01
73151;BME280;61354;50.758;6.106;2023-04-19T13:09:31;99780.88;;;13.36;38.52
73151;BME280;61354;50.758;6.106;2023-04-19T13:11:57;99776.38;;;13.83;40.13
73151;BME280;61354;50.758;6.106;2023-04-19T13:14:25;99774.00;;;13.85;38.85
73151;BME280;61354;50.758;6.106;2023-04-19T13:16:50;99777.09;;;13.80;39.98